WetterOnline ( https://www.wetteronline.de )

Wetter aktuell Bad Wimpfen

Aktuelles Wetter: Waibstadt (237m)

6-stündlich | Neueste Meldungen
Ortszeit Temperatur Wetter
Fr, 19.04. 8:00 4.9° C leichter Regen
Fr, 19.04. 2:00 5.2° C bedeckt
Do, 18.04. 20:00 7.6° C leicht bewölkt
Do, 18.04. 14:00 9.3° C bewölkt
Do, 18.04. 8:00 3.8° C bedeckt
Do, 18.04. 2:00 2.9° C bewölkt
Mi, 17.04. 20:00 6.1° C leicht bewölkt
Mi, 17.04. 14:00 9.4° C bewölkt
Ortszeit Temperatur Wetter
Fr, 19.04. 10:10 4.7° C leichter Regen
Fr, 19.04. 10:00 4.7° C leichter Regen
Fr, 19.04. 9:50 4.7° C leichter Regen
Fr, 19.04. 9:40 4.8° C leichter Regen
Fr, 19.04. 9:30 5.1° C leichter Regen
Fr, 19.04. 9:20 5.1° C leichter Regen
Fr, 19.04. 9:00 5.1° C leichter Regen
Fr, 19.04. 8:30 4.9° C leichter Regen
Fr, 19.04. 8:00 4.9° C leichter Regen
Fr, 19.04. 7:30 5.1° C leichter Regen
Ortszeit Relative Feuchte Sichtweite
Fr, 19.04. 8:00 87% 17 km
Fr, 19.04. 2:00 86% 40 km
Do, 18.04. 20:00 69% 60 km
Do, 18.04. 14:00 59% >70 km
Do, 18.04. 8:00 93% 29 km
Do, 18.04. 2:00 94% 27 km
Mi, 17.04. 20:00 77% 60 km
Mi, 17.04. 14:00 54% 50 km
Ortszeit Relative Feuchte Sichtweite
Fr, 19.04. 10:10 89% -
Fr, 19.04. 10:00 89% 9 km
Fr, 19.04. 9:50 89% -
Fr, 19.04. 9:40 87% -
Fr, 19.04. 9:30 88% 19 km
Fr, 19.04. 9:20 88% -
Fr, 19.04. 9:00 88% 22 km
Fr, 19.04. 8:30 88% 21 km
Fr, 19.04. 8:00 87% 17 km
Fr, 19.04. 7:30 84% 25 km
Ortszeit Niederschlagsmenge Niederschlagsart
Fr, 19.04. 8:00 0.2 l/m2 in 12 Std. Regen
Fr, 19.04. 2:00 0.0 l/m2 in 6 Std. -
Do, 18.04. 20:00 3 l/m2 in 12 Std. Regen
Do, 18.04. 14:00 0.1 l/m2 in 6 Std. Regen
Do, 18.04. 8:00 0.4 l/m2 in 12 Std. Regen
Do, 18.04. 2:00 0.0 l/m2 in 6 Std. -
Mi, 17.04. 20:00 0.1 l/m2 in 12 Std. -
Mi, 17.04. 14:00 0.1 l/m2 in 6 Std. Regen
Ortszeit Niederschlagsmenge Niederschlagsart
Fr, 19.04. 10:10 keine Meldung -
Fr, 19.04. 10:00 0.8 l/m2 in 1 Std. Regen
Fr, 19.04. 9:50 keine Meldung -
Fr, 19.04. 9:40 keine Meldung -
Fr, 19.04. 9:30 0.1 l/m2 in 30 Min -
Fr, 19.04. 9:20 keine Meldung -
Fr, 19.04. 9:00 0.2 l/m2 in 1 Std. Regen
Fr, 19.04. 8:30 0.1 l/m2 in 30 Min -
Fr, 19.04. 8:00 0.2 l/m2 in 1 Std. Regen
Fr, 19.04. 7:30 <0.05 l/m2 in 30 Min -
Ortszeit Stärke Spitze Richtung
km/h Bft. km/h Grad Sektor
Fr, 19.04. 8:00 18 3 40 250° W
Fr, 19.04. 2:00 14 3 25 260° W
Do, 18.04. 20:00 13 3 28 310° NW
Do, 18.04. 14:00 7 2 22 310° NW
Do, 18.04. 8:00 4 1 14 300° NW
Do, 18.04. 2:00 0 0 11 - -
Mi, 17.04. 20:00 11 2 43 240° SW
Mi, 17.04. 14:00 9 2 28 340° N
Ortszeit Stärke Spitze Richtung
km/h Bft. km/h Grad Sektor
Fr, 19.04. 10:10 31 5 - 250° W
Fr, 19.04. 10:00 29 5 50 250° W
Fr, 19.04. 9:50 29 5 - 250° W
Fr, 19.04. 9:40 28 4 - 250° W
Fr, 19.04. 9:30 26 4 52 250° W
Fr, 19.04. 9:20 26 4 - 250° W
Fr, 19.04. 9:00 22 4 37 250° W
Fr, 19.04. 8:30 20 4 37 240° SW
Fr, 19.04. 8:00 18 3 36 250° W
Fr, 19.04. 7:30 18 3 36 260° W
Ortszeit Untergrenze Bedeckung Gattung
total tief tief mittel hoch
Fr, 19.04. 8:00 870 m 8/8 8/8 - - -
Fr, 19.04. 2:00 1800 m 8/8 8/8 - - -
Do, 18.04. 20:00 8100 m 6/8 0/8 - - -
Do, 18.04. 14:00 1200 m 7/8 7/8 - - -
Do, 18.04. 8:00 240 m 8/8 8/8 - - -
Do, 18.04. 2:00 540 m 7/8 7/8 - - -
Mi, 17.04. 20:00 1800 m 4/8 4/8 - - -
Mi, 17.04. 14:00 1410 m 8/8 4/8 - - -
Ortszeit Bedeckungsgrad in Achtel und Wolkenuntergrenze
Fr, 19.04. 10:10 8
Fr, 19.04. 10:00 6(480m) 8(690m)
Fr, 19.04. 9:50 6(480m) 8(690m)
Fr, 19.04. 9:40 7
Fr, 19.04. 9:30 6(480m) 7(690m) 7(870m)
Fr, 19.04. 9:20 6(480m) 7(690m) 7(870m)
Fr, 19.04. 9:00 2(480m) 7(1080m) 7(1290m)
Fr, 19.04. 8:30 1(750m) 7(1110m)
Fr, 19.04. 8:00 8(870m)
Fr, 19.04. 7:30 2(990m) 4(1170m) 6(1800m)
Ortszeit Luftdruck NN (hPa) Tendenz (hPa in 3 Std.)
Fr, 19.04. 8:00 1017 - 1,4
Fr, 19.04. 2:00 1020 - 0,5
Do, 18.04. 20:00 1020 + 1,0
Do, 18.04. 14:00 1018 + 0,8
Do, 18.04. 8:00 1015 + 1,8
Do, 18.04. 2:00 1013 + 0,5
Mi, 17.04. 20:00 1011 + 1,1
Mi, 17.04. 14:00 1011 - 0,2
Ortszeit Luftdruck NN (hPa) Tendenz (hPa in 3 Std.)
Fr, 19.04. 10:10 1015 keine Meldung
Fr, 19.04. 10:00 1015 - 2,1
Fr, 19.04. 9:50 1015 keine Meldung
Fr, 19.04. 9:40 1015 keine Meldung
Fr, 19.04. 9:30 1016 - 1,5
Fr, 19.04. 9:20 1016 keine Meldung
Fr, 19.04. 9:00 1016 - 1,4
Fr, 19.04. 8:30 1017 - 1,5
Fr, 19.04. 8:00 1017 - 1,4
Fr, 19.04. 7:30 1017 - 1,6
Ortszeit Schneehöhe (cm)
Fr, 19.04. 8:00 0
Fr, 19.04. 2:00 0
Do, 18.04. 20:00 0
Do, 18.04. 14:00 0
Do, 18.04. 8:00 0
Do, 18.04. 2:00 0
Mi, 17.04. 20:00 0
Mi, 17.04. 14:00 0
Ortszeit Schneehöhe (cm)
Fr, 19.04. 10:10 -
Fr, 19.04. 10:00 0
Fr, 19.04. 9:50 0
Fr, 19.04. 9:40 -
Fr, 19.04. 9:30 0
Fr, 19.04. 9:20 0
Fr, 19.04. 9:00 0
Fr, 19.04. 8:30 0
Fr, 19.04. 8:00 0
Fr, 19.04. 7:30 0
Link zu dieser Seite / Seite empfehlen

Das Wetter in ...